sensor_id;sensor_type;location;lat;lon;timestamp;P1;durP1;ratioP1;P2;durP2;ratioP2
71496;SDS011;59317;53.218;5.730;2022-11-12T00:00:43;24.80;;;12.07;;
71496;SDS011;59317;53.218;5.730;2022-11-12T00:03:09;23.95;;;11.85;;
71496;SDS011;59317;53.218;5.730;2022-11-12T00:05:35;25.75;;;12.57;;
71496;SDS011;59317;53.218;5.730;2022-11-12T00:08:02;25.38;;;11.95;;
71496;SDS011;59317;53.218;5.730;2022-11-12T00:10:28;25.33;;;12.18;;
71496;SDS011;59317;53.218;5.730;2022-11-12T00:12:55;27.60;;;11.73;;
71496;SDS011;59317;53.218;5.730;2022-11-12T00:15:21;24.73;;;11.75;;
71496;SDS011;59317;53.218;5.730;2022-11-12T00:17:47;23.40;;;12.03;;
71496;SDS011;59317;53.218;5.730;2022-11-12T00:20:13;25.13;;;12.03;;
71496;SDS011;59317;53.218;5.730;2022-11-12T00:22:39;24.20;;;12.10;;
71496;SDS011;59317;53.218;5.730;2022-11-12T00:25:05;26.13;;;11.93;;
71496;SDS011;59317;53.218;5.730;2022-11-12T00:27:32;23.90;;;11.20;;
71496;SDS011;59317;53.218;5.730;2022-11-12T00:29:58;22.58;;;10.40;;
71496;SDS011;59317;53.218;5.730;2022-11-12T00:32:24;23.85;;;11.23;;
71496;SDS011;59317;53.218;5.730;2022-11-12T00:34:50;21.40;;;10.80;;
71496;SDS011;59317;53.218;5.730;2022-11-12T00:37:16;25.83;;;11.98;;
71496;SDS011;59317;53.218;5.730;2022-11-12T00:39:43;22.58;;;10.93;;
71496;SDS011;59317;53.218;5.730;2022-11-12T00:42:09;22.55;;;10.60;;
71496;SDS011;59317;53.218;5.730;2022-11-12T00:44:35;25.10;;;10.90;;
71496;SDS011;59317;53.218;5.730;2022-11-12T00:47:01;23.77;;;10.80;;
71496;SDS011;59317;53.218;5.730;2022-11-12T00:49:27;22.23;;;10.37;;
71496;SDS011;59317;53.218;5.730;2022-11-12T00:51:53;22.85;;;11.02;;
71496;SDS011;59317;53.218;5.730;2022-11-12T00:54:19;23.38;;;11.32;;
71496;SDS011;59317;53.218;5.730;2022-11-12T00:56:45;26.05;;;12.55;;
71496;SDS011;59317;53.218;5.730;2022-11-12T00:59:11;26.50;;;12.18;;
71496;SDS011;59317;53.218;5.730;2022-11-12T01:01:37;20.03;;;9.13;;
71496;SDS011;59317;53.218;5.730;2022-11-12T01:04:03;17.55;;;7.78;;
71496;SDS011;59317;53.218;5.730;2022-11-12T01:06:29;21.20;;;10.50;;
71496;SDS011;59317;53.218;5.730;2022-11-12T01:08:55;28.77;;;12.98;;
71496;SDS011;59317;53.218;5.730;2022-11-12T01:11:26;31.43;;;13.80;;
71496;SDS011;59317;53.218;5.730;2022-11-12T01:13:55;31.65;;;14.40;;
71496;SDS011;59317;53.218;5.730;2022-11-12T01:16:22;27.63;;;13.23;;
71496;SDS011;59317;53.218;5.730;2022-11-12T01:18:51;27.85;;;12.57;;
71496;SDS011;59317;53.218;5.730;2022-11-12T01:21:17;31.33;;;13.48;;
71496;SDS011;59317;53.218;5.730;2022-11-12T01:23:43;30.10;;;13.15;;
71496;SDS011;59317;53.218;5.730;2022-11-12T01:26:11;29.00;;;13.68;;
71496;SDS011;59317;53.218;5.730;2022-11-12T01:28:38;28.92;;;13.30;;
71496;SDS011;59317;53.218;5.730;2022-11-12T01:31:10;27.85;;;12.32;;
71496;SDS011;59317;53.218;5.730;2022-11-12T01:33:37;27.15;;;12.63;;
71496;SDS011;59317;53.218;5.730;2022-11-12T01:36:03;24.08;;;11.70;;
71496;SDS011;59317;53.218;5.730;2022-11-12T01:38:33;20.65;;;9.80;;
71496;SDS011;59317;53.218;5.730;2022-11-12T01:40:59;27.50;;;12.00;;
71496;SDS011;59317;53.218;5.730;2022-11-12T01:43:25;33.00;;;13.77;;
71496;SDS011;59317;53.218;5.730;2022-11-12T01:45:51;31.10;;;13.68;;
71496;SDS011;59317;53.218;5.730;2022-11-12T01:48:24;32.20;;;13.88;;
71496;SDS011;59317;53.218;5.730;2022-11-12T01:50:51;27.15;;;12.32;;
71496;SDS011;59317;53.218;5.730;2022-11-12T01:53:17;28.20;;;11.15;;
71496;SDS011;59317;53.218;5.730;2022-11-12T01:55:45;90.93;;;9.43;;
71496;SDS011;59317;53.218;5.730;2022-11-12T01:58:12;34.22;;;12.98;;
71496;SDS011;59317;53.218;5.730;2022-11-12T02:00:39;32.65;;;13.05;;
71496;SDS011;59317;53.218;5.730;2022-11-12T02:03:06;27.65;;;12.05;;
71496;SDS011;59317;53.218;5.730;2022-11-12T02:05:35;36.13;;;13.00;;
71496;SDS011;59317;53.218;5.730;2022-11-12T02:08:02;38.47;;;15.30;;
71496;SDS011;59317;53.218;5.730;2022-11-12T02:10:29;37.60;;;15.05;;
71496;SDS011;59317;53.218;5.730;2022-11-12T02:12:55;37.35;;;15.13;;
71496;SDS011;59317;53.218;5.730;2022-11-12T02:15:40;39.95;;;16.35;;
71496;SDS011;59317;53.218;5.730;2022-11-12T02:18:06;42.45;;;17.58;;
71496;SDS011;59317;53.218;5.730;2022-11-12T02:20:33;43.20;;;17.73;;
71496;SDS011;59317;53.218;5.730;2022-11-12T02:22:59;39.90;;;17.17;;
71496;SDS011;59317;53.218;5.730;2022-11-12T02:25:25;42.13;;;17.33;;
71496;SDS011;59317;53.218;5.730;2022-11-12T02:27:51;38.35;;;16.65;;
71496;SDS011;59317;53.218;5.730;2022-11-12T02:30:22;41.80;;;17.25;;
71496;SDS011;59317;53.218;5.730;2022-11-12T02:32:56;35.85;;;16.30;;
71496;SDS011;59317;53.218;5.730;2022-11-12T02:35:22;37.10;;;16.35;;
71496;SDS011;59317;53.218;5.730;2022-11-12T02:37:48;37.10;;;16.30;;
71496;SDS011;59317;53.218;5.730;2022-11-12T02:40:14;37.85;;;17.00;;
71496;SDS011;59317;53.218;5.730;2022-11-12T02:42:41;36.70;;;15.95;;
71496;SDS011;59317;53.218;5.730;2022-11-12T02:45:07;35.22;;;15.55;;
71496;SDS011;59317;53.218;5.730;2022-11-12T02:47:33;34.63;;;15.00;;
71496;SDS011;59317;53.218;5.730;2022-11-12T02:49:59;34.55;;;15.90;;
71496;SDS011;59317;53.218;5.730;2022-11-12T02:52:25;32.53;;;13.82;;
71496;SDS011;59317;53.218;5.730;2022-11-12T02:54:51;29.63;;;13.50;;
71496;SDS011;59317;53.218;5.730;2022-11-12T02:57:17;29.85;;;13.05;;
71496;SDS011;59317;53.218;5.730;2022-11-12T02:59:42;28.35;;;12.20;;
71496;SDS011;59317;53.218;5.730;2022-11-12T03:02:08;26.17;;;12.35;;
71496;SDS011;59317;53.218;5.730;2022-11-12T03:04:34;28.02;;;12.52;;
71496;SDS011;59317;53.218;5.730;2022-11-12T03:07:00;29.48;;;13.38;;
71496;SDS011;59317;53.218;5.730;2022-11-12T03:09:26;33.57;;;14.60;;
71496;SDS011;59317;53.218;5.730;2022-11-12T03:11:52;33.60;;;14.43;;
71496;SDS011;59317;53.218;5.730;2022-11-12T03:14:18;32.40;;;14.30;;
71496;SDS011;59317;53.218;5.730;2022-11-12T03:16:45;29.88;;;14.27;;
71496;SDS011;59317;53.218;5.730;2022-11-12T03:19:11;33.22;;;14.25;;
71496;SDS011;59317;53.218;5.730;2022-11-12T03:21:37;32.63;;;15.13;;
71496;SDS011;59317;53.218;5.730;2022-11-12T03:24:04;32.85;;;14.43;;
71496;SDS011;59317;53.218;5.730;2022-11-12T03:26:30;29.95;;;13.63;;
71496;SDS011;59317;53.218;5.730;2022-11-12T03:28:56;31.55;;;14.27;;
71496;SDS011;59317;53.218;5.730;2022-11-12T03:31:22;31.40;;;14.25;;
71496;SDS011;59317;53.218;5.730;2022-11-12T03:33:48;36.45;;;15.13;;
71496;SDS011;59317;53.218;5.730;2022-11-12T03:36:14;37.63;;;16.33;;
71496;SDS011;59317;53.218;5.730;2022-11-12T03:38:40;34.45;;;14.63;;
71496;SDS011;59317;53.218;5.730;2022-11-12T03:41:06;46.17;;;16.27;;
71496;SDS011;59317;53.218;5.730;2022-11-12T03:43:32;49.83;;;17.35;;
71496;SDS011;59317;53.218;5.730;2022-11-12T03:45:58;73.45;;;18.42;;
71496;SDS011;59317;53.218;5.730;2022-11-12T03:48:24;76.05;;;18.55;;
71496;SDS011;59317;53.218;5.730;2022-11-12T03:50:50;79.13;;;18.03;;
71496;SDS011;59317;53.218;5.730;2022-11-12T03:53:16;96.17;;;18.87;;
71496;SDS011;59317;53.218;5.730;2022-11-12T03:55:42;91.17;;;18.83;;
71496;SDS011;59317;53.218;5.730;2022-11-12T03:58:08;74.70;;;17.27;;
71496;SDS011;59317;53.218;5.730;2022-11-12T04:00:34;75.23;;;17.27;;
71496;SDS011;59317;53.218;5.730;2022-11-12T04:03:00;82.73;;;17.00;;
71496;SDS011;59317;53.218;5.730;2022-11-12T04:05:26;105.47;;;19.47;;
71496;SDS011;59317;53.218;5.730;2022-11-12T04:08:12;92.57;;;18.23;;
71496;SDS011;59317;53.218;5.730;2022-11-12T04:10:58;115.30;;;19.85;;
71496;SDS011;59317;53.218;5.730;2022-11-12T04:13:24;99.20;;;18.27;;
71496;SDS011;59317;53.218;5.730;2022-11-12T04:18:40;117.53;;;20.97;;
71496;SDS011;59317;53.218;5.730;2022-11-12T04:21:26;120.00;;;20.60;;
71496;SDS011;59317;53.218;5.730;2022-11-12T04:24:12;127.60;;;22.05;;
71496;SDS011;59317;53.218;5.730;2022-11-12T04:26:58;117.70;;;22.17;;
71496;SDS011;59317;53.218;5.730;2022-11-12T04:29:24;141.93;;;23.50;;
71496;SDS011;59317;53.218;5.730;2022-11-12T04:32:08;153.38;;;23.50;;
71496;SDS011;59317;53.218;5.730;2022-11-12T04:34:34;168.52;;;23.58;;
71496;SDS011;59317;53.218;5.730;2022-11-12T04:37:03;161.07;;;24.30;;
71496;SDS011;59317;53.218;5.730;2022-11-12T04:39:29;201.98;;;25.73;;
71496;SDS011;59317;53.218;5.730;2022-11-12T04:41:55;256.70;;;28.75;;
71496;SDS011;59317;53.218;5.730;2022-11-12T04:44:40;201.07;;;27.52;;
71496;SDS011;59317;53.218;5.730;2022-11-12T04:47:28;239.63;;;28.07;;
71496;SDS011;59317;53.218;5.730;2022-11-12T04:49:54;325.53;;;30.17;;
71496;SDS011;59317;53.218;5.730;2022-11-12T04:52:20;299.57;;;31.20;;
71496;SDS011;59317;53.218;5.730;2022-11-12T04:54:47;310.50;;;31.70;;
71496;SDS011;59317;53.218;5.730;2022-11-12T04:57:13;296.38;;;29.58;;
71496;SDS011;59317;53.218;5.730;2022-11-12T04:59:39;289.52;;;29.95;;
71496;SDS011;59317;53.218;5.730;2022-11-12T05:02:04;295.60;;;28.40;;
71496;SDS011;59317;53.218;5.730;2022-11-12T05:04:30;302.30;;;30.40;;
71496;SDS011;59317;53.218;5.730;2022-11-12T05:06:57;395.37;;;33.60;;
71496;SDS011;59317;53.218;5.730;2022-11-12T05:09:23;375.23;;;34.28;;
71496;SDS011;59317;53.218;5.730;2022-11-12T05:11:50;447.08;;;35.30;;
71496;SDS011;59317;53.218;5.730;2022-11-12T05:14:16;417.02;;;35.45;;
71496;SDS011;59317;53.218;5.730;2022-11-12T05:16:42;455.80;;;37.30;;
71496;SDS011;59317;53.218;5.730;2022-11-12T05:19:09;400.70;;;35.17;;
71496;SDS011;59317;53.218;5.730;2022-11-12T05:21:35;447.65;;;36.35;;
71496;SDS011;59317;53.218;5.730;2022-11-12T05:24:19;465.83;;;37.33;;
71496;SDS011;59317;53.218;5.730;2022-11-12T05:26:45;478.33;;;38.67;;
71496;SDS011;59317;53.218;5.730;2022-11-12T05:29:11;525.67;;;41.25;;
71496;SDS011;59317;53.218;5.730;2022-11-12T05:31:37;505.35;;;40.80;;
71496;SDS011;59317;53.218;5.730;2022-11-12T05:34:03;481.20;;;39.55;;
71496;SDS011;59317;53.218;5.730;2022-11-12T05:36:29;501.80;;;40.00;;
71496;SDS011;59317;53.218;5.730;2022-11-12T05:38:55;476.93;;;38.87;;
71496;SDS011;59317;53.218;5.730;2022-11-12T05:41:21;506.03;;;40.37;;
71496;SDS011;59317;53.218;5.730;2022-11-12T05:43:47;446.83;;;40.30;;
71496;SDS011;59317;53.218;5.730;2022-11-12T05:46:13;508.03;;;39.03;;
71496;SDS011;59317;53.218;5.730;2022-11-12T05:48:39;490.50;;;42.10;;
71496;SDS011;59317;53.218;5.730;2022-11-12T05:51:05;479.52;;;38.05;;
71496;SDS011;59317;53.218;5.730;2022-11-12T05:53:31;326.85;;;35.08;;
71496;SDS011;59317;53.218;5.730;2022-11-12T05:56:01;352.98;;;36.03;;
71496;SDS011;59317;53.218;5.730;2022-11-12T05:58:27;420.15;;;39.78;;
71496;SDS011;59317;53.218;5.730;2022-11-12T06:00:53;258.98;;;31.33;;
71496;SDS011;59317;53.218;5.730;2022-11-12T06:03:19;229.50;;;31.90;;
71496;SDS011;59317;53.218;5.730;2022-11-12T06:05:45;252.47;;;32.27;;
71496;SDS011;59317;53.218;5.730;2022-11-12T06:08:11;295.10;;;34.40;;
71496;SDS011;59317;53.218;5.730;2022-11-12T06:10:37;325.42;;;35.80;;
71496;SDS011;59317;53.218;5.730;2022-11-12T06:13:03;237.05;;;31.80;;
71496;SDS011;59317;53.218;5.730;2022-11-12T06:15:29;196.93;;;30.83;;
71496;SDS011;59317;53.218;5.730;2022-11-12T06:17:55;244.20;;;33.17;;
71496;SDS011;59317;53.218;5.730;2022-11-12T06:20:21;197.40;;;32.03;;
71496;SDS011;59317;53.218;5.730;2022-11-12T06:22:47;191.83;;;31.97;;
71496;SDS011;59317;53.218;5.730;2022-11-12T06:25:13;181.57;;;31.80;;
71496;SDS011;59317;53.218;5.730;2022-11-12T06:27:39;173.53;;;31.53;;
71496;SDS011;59317;53.218;5.730;2022-11-12T06:30:06;172.10;;;31.10;;
71496;SDS011;59317;53.218;5.730;2022-11-12T06:32:32;162.00;;;30.65;;
71496;SDS011;59317;53.218;5.730;2022-11-12T06:34:58;181.38;;;30.90;;
71496;SDS011;59317;53.218;5.730;2022-11-12T06:37:25;150.73;;;27.75;;
71496;SDS011;59317;53.218;5.730;2022-11-12T06:39:51;177.88;;;31.25;;
71496;SDS011;59317;53.218;5.730;2022-11-12T06:42:17;121.05;;;25.83;;
71496;SDS011;59317;53.218;5.730;2022-11-12T06:44:43;156.65;;;28.10;;
71496;SDS011;59317;53.218;5.730;2022-11-12T06:47:09;162.10;;;28.58;;
71496;SDS011;59317;53.218;5.730;2022-11-12T06:49:35;201.48;;;29.55;;
71496;SDS011;59317;53.218;5.730;2022-11-12T06:52:02;222.73;;;30.90;;
71496;SDS011;59317;53.218;5.730;2022-11-12T06:54:28;225.30;;;29.05;;
71496;SDS011;59317;53.218;5.730;2022-11-12T06:56:54;211.25;;;29.25;;
71496;SDS011;59317;53.218;5.730;2022-11-12T06:59:20;295.63;;;33.17;;
71496;SDS011;59317;53.218;5.730;2022-11-12T07:01:46;270.23;;;31.80;;
71496;SDS011;59317;53.218;5.730;2022-11-12T07:04:12;304.55;;;32.63;;
71496;SDS011;59317;53.218;5.730;2022-11-12T07:06:38;236.35;;;30.90;;
71496;SDS011;59317;53.218;5.730;2022-11-12T07:09:04;287.67;;;31.48;;
71496;SDS011;59317;53.218;5.730;2022-11-12T07:11:30;265.45;;;31.70;;
71496;SDS011;59317;53.218;5.730;2022-11-12T07:13:56;302.52;;;32.13;;
71496;SDS011;59317;53.218;5.730;2022-11-12T07:16:22;317.88;;;33.03;;
71496;SDS011;59317;53.218;5.730;2022-11-12T07:18:48;415.35;;;36.75;;
71496;SDS011;59317;53.218;5.730;2022-11-12T07:21:15;342.98;;;34.35;;
71496;SDS011;59317;53.218;5.730;2022-11-12T07:23:42;478.95;;;38.35;;
71496;SDS011;59317;53.218;5.730;2022-11-12T07:26:12;469.13;;;37.70;;
71496;SDS011;59317;53.218;5.730;2022-11-12T07:28:38;546.85;;;44.33;;
71496;SDS011;59317;53.218;5.730;2022-11-12T07:31:05;468.90;;;40.78;;
71496;SDS011;59317;53.218;5.730;2022-11-12T07:33:32;475.07;;;40.93;;
71496;SDS011;59317;53.218;5.730;2022-11-12T07:36:05;415.90;;;38.70;;
71496;SDS011;59317;53.218;5.730;2022-11-12T07:38:32;469.88;;;42.33;;
71496;SDS011;59317;53.218;5.730;2022-11-12T07:41:10;389.40;;;39.17;;
71496;SDS011;59317;53.218;5.730;2022-11-12T07:43:36;353.10;;;36.90;;
71496;SDS011;59317;53.218;5.730;2022-11-12T07:46:07;427.35;;;40.67;;
71496;SDS011;59317;53.218;5.730;2022-11-12T07:48:33;373.92;;;37.80;;
71496;SDS011;59317;53.218;5.730;2022-11-12T07:51:03;393.42;;;38.10;;
71496;SDS011;59317;53.218;5.730;2022-11-12T07:53:30;399.92;;;39.22;;
71496;SDS011;59317;53.218;5.730;2022-11-12T07:55:57;330.02;;;37.03;;
71496;SDS011;59317;53.218;5.730;2022-11-12T07:58:23;340.95;;;36.15;;
71496;SDS011;59317;53.218;5.730;2022-11-12T08:00:49;337.58;;;34.10;;
71496;SDS011;59317;53.218;5.730;2022-11-12T08:03:15;326.87;;;33.00;;
71496;SDS011;59317;53.218;5.730;2022-11-12T08:05:41;239.52;;;26.45;;
71496;SDS011;59317;53.218;5.730;2022-11-12T08:08:07;388.40;;;32.00;;
71496;SDS011;59317;53.218;5.730;2022-11-12T08:10:35;300.30;;;29.33;;
71496;SDS011;59317;53.218;5.730;2022-11-12T08:13:00;349.98;;;34.55;;
71496;SDS011;59317;53.218;5.730;2022-11-12T08:15:26;320.45;;;29.77;;
71496;SDS011;59317;53.218;5.730;2022-11-12T08:17:52;360.93;;;35.30;;
71496;SDS011;59317;53.218;5.730;2022-11-12T08:20:18;318.10;;;32.73;;
71496;SDS011;59317;53.218;5.730;2022-11-12T08:22:44;385.53;;;33.10;;
71496;SDS011;59317;53.218;5.730;2022-11-12T08:25:10;325.45;;;32.60;;
71496;SDS011;59317;53.218;5.730;2022-11-12T08:27:36;283.10;;;31.30;;
71496;SDS011;59317;53.218;5.730;2022-11-12T08:30:02;317.45;;;31.02;;
71496;SDS011;59317;53.218;5.730;2022-11-12T08:32:28;356.53;;;31.80;;
71496;SDS011;59317;53.218;5.730;2022-11-12T08:34:54;267.25;;;26.77;;
71496;SDS011;59317;53.218;5.730;2022-11-12T08:37:20;220.05;;;27.20;;
71496;SDS011;59317;53.218;5.730;2022-11-12T08:39:46;179.18;;;21.42;;
71496;SDS011;59317;53.218;5.730;2022-11-12T08:42:12;247.07;;;24.17;;
71496;SDS011;59317;53.218;5.730;2022-11-12T08:44:38;276.67;;;27.77;;
71496;SDS011;59317;53.218;5.730;2022-11-12T08:47:04;268.95;;;27.70;;
71496;SDS011;59317;53.218;5.730;2022-11-12T08:49:30;335.88;;;30.25;;
71496;SDS011;59317;53.218;5.730;2022-11-12T08:51:56;298.50;;;29.35;;
71496;SDS011;59317;53.218;5.730;2022-11-12T08:54:22;198.88;;;23.65;;
71496;SDS011;59317;53.218;5.730;2022-11-12T08:56:49;201.13;;;27.70;;
71496;SDS011;59317;53.218;5.730;2022-11-12T08:59:15;163.90;;;25.02;;
71496;SDS011;59317;53.218;5.730;2022-11-12T09:01:41;150.33;;;24.23;;
71496;SDS011;59317;53.218;5.730;2022-11-12T09:04:07;191.25;;;27.20;;
71496;SDS011;59317;53.218;5.730;2022-11-12T09:06:33;205.80;;;25.42;;
71496;SDS011;59317;53.218;5.730;2022-11-12T09:08:59;114.78;;;19.90;;
71496;SDS011;59317;53.218;5.730;2022-11-12T09:11:25;144.80;;;23.80;;
71496;SDS011;59317;53.218;5.730;2022-11-12T09:13:51;136.57;;;21.90;;
71496;SDS011;59317;53.218;5.730;2022-11-12T09:16:18;89.63;;;18.30;;
71496;SDS011;59317;53.218;5.730;2022-11-12T09:18:45;119.97;;;23.25;;
71496;SDS011;59317;53.218;5.730;2022-11-12T09:21:11;166.18;;;25.27;;
71496;SDS011;59317;53.218;5.730;2022-11-12T09:23:38;158.23;;;26.13;;
71496;SDS011;59317;53.218;5.730;2022-11-12T09:26:04;102.03;;;21.47;;
71496;SDS011;59317;53.218;5.730;2022-11-12T09:28:31;123.63;;;23.40;;
71496;SDS011;59317;53.218;5.730;2022-11-12T09:30:57;194.45;;;26.30;;
71496;SDS011;59317;53.218;5.730;2022-11-12T09:33:28;194.55;;;25.25;;
71496;SDS011;59317;53.218;5.730;2022-11-12T09:35:54;194.70;;;25.50;;
71496;SDS011;59317;53.218;5.730;2022-11-12T09:38:21;152.10;;;24.70;;
71496;SDS011;59317;53.218;5.730;2022-11-12T09:40:53;108.78;;;21.63;;
71496;SDS011;59317;53.218;5.730;2022-11-12T09:43:26;121.45;;;18.85;;
71496;SDS011;59317;53.218;5.730;2022-11-12T09:45:54;117.60;;;17.65;;
71496;SDS011;59317;53.218;5.730;2022-11-12T09:48:28;168.55;;;23.98;;
71496;SDS011;59317;53.218;5.730;2022-11-12T09:53:31;122.25;;;21.77;;
71496;SDS011;59317;53.218;5.730;2022-11-12T09:55:59;146.27;;;22.67;;
71496;SDS011;59317;53.218;5.730;2022-11-12T09:58:26;117.55;;;22.25;;
71496;SDS011;59317;53.218;5.730;2022-11-12T10:00:56;83.50;;;17.45;;
71496;SDS011;59317;53.218;5.730;2022-11-12T10:03:35;123.75;;;20.65;;
71496;SDS011;59317;53.218;5.730;2022-11-12T10:06:05;136.50;;;19.23;;
71496;SDS011;59317;53.218;5.730;2022-11-12T10:08:51;116.70;;;19.38;;
71496;SDS011;59317;53.218;5.730;2022-11-12T10:11:24;128.03;;;20.33;;
71496;SDS011;59317;53.218;5.730;2022-11-12T10:14:04;131.15;;;20.80;;
71496;SDS011;59317;53.218;5.730;2022-11-12T10:24:06;171.93;;;21.10;;
71496;SDS011;59317;53.218;5.730;2022-11-12T10:26:34;77.45;;;14.35;;
71496;SDS011;59317;53.218;5.730;2022-11-12T10:31:43;100.40;;;18.73;;
71496;SDS011;59317;53.218;5.730;2022-11-12T10:36:35;106.47;;;18.03;;
71496;SDS011;59317;53.218;5.730;2022-11-12T10:39:01;106.05;;;18.38;;
71496;SDS011;59317;53.218;5.730;2022-11-12T10:41:29;122.20;;;19.15;;
71496;SDS011;59317;53.218;5.730;2022-11-12T10:43:56;117.57;;;20.20;;
71496;SDS011;59317;53.218;5.730;2022-11-12T10:46:28;89.57;;;18.35;;
71496;SDS011;59317;53.218;5.730;2022-11-12T10:51:56;104.72;;;17.88;;
71496;SDS011;59317;53.218;5.730;2022-11-12T10:56:52;69.88;;;15.35;;
71496;SDS011;59317;53.218;5.730;2022-11-12T10:59:19;58.70;;;14.15;;
71496;SDS011;59317;53.218;5.730;2022-11-12T11:01:52;97.57;;;18.37;;
71496;SDS011;59317;53.218;5.730;2022-11-12T11:04:33;70.32;;;15.30;;
71496;SDS011;59317;53.218;5.730;2022-11-12T11:07:04;103.97;;;16.73;;
71496;SDS011;59317;53.218;5.730;2022-11-12T11:09:30;128.02;;;20.17;;
71496;SDS011;59317;53.218;5.730;2022-11-12T11:11:57;100.40;;;16.30;;
71496;SDS011;59317;53.218;5.730;2022-11-12T11:14:33;75.80;;;15.73;;
71496;SDS011;59317;53.218;5.730;2022-11-12T11:17:01;88.05;;;17.80;;
71496;SDS011;59317;53.218;5.730;2022-11-12T11:19:33;53.95;;;14.82;;
71496;SDS011;59317;53.218;5.730;2022-11-12T11:22:16;52.33;;;13.68;;
71496;SDS011;59317;53.218;5.730;2022-11-12T11:27:37;79.72;;;17.40;;
71496;SDS011;59317;53.218;5.730;2022-11-12T11:30:10;105.30;;;19.63;;
71496;SDS011;59317;53.218;5.730;2022-11-12T11:40:39;81.70;;;21.97;;
71496;SDS011;59317;53.218;5.730;2022-11-12T11:48:37;68.88;;;21.38;;
71496;SDS011;59317;53.218;5.730;2022-11-12T11:51:07;65.07;;;21.92;;
71496;SDS011;59317;53.218;5.730;2022-11-12T11:56:18;83.30;;;24.50;;
71496;SDS011;59317;53.218;5.730;2022-11-12T12:06:37;62.20;;;19.60;;
71496;SDS011;59317;53.218;5.730;2022-11-12T12:11:49;87.22;;;25.55;;
71496;SDS011;59317;53.218;5.730;2022-11-12T12:15:10;93.80;;;26.63;;
71496;SDS011;59317;53.218;5.730;2022-11-12T12:21:59;61.47;;;22.00;;
71496;SDS011;59317;53.218;5.730;2022-11-12T12:24:34;74.07;;;27.25;;
71496;SDS011;59317;53.218;5.730;2022-11-12T12:27:08;76.85;;;26.92;;
71496;SDS011;59317;53.218;5.730;2022-11-12T12:29:41;65.75;;;23.85;;
71496;SDS011;59317;53.218;5.730;2022-11-12T12:32:21;63.20;;;24.17;;
71496;SDS011;59317;53.218;5.730;2022-11-12T12:34:51;60.55;;;22.05;;
71496;SDS011;59317;53.218;5.730;2022-11-12T12:37:38;65.57;;;25.55;;
71496;SDS011;59317;53.218;5.730;2022-11-12T12:40:28;79.25;;;27.67;;
71496;SDS011;59317;53.218;5.730;2022-11-12T12:45:42;76.47;;;27.92;;
71496;SDS011;59317;53.218;5.730;2022-11-12T12:48:28;61.60;;;23.73;;
71496;SDS011;59317;53.218;5.730;2022-11-12T12:50:55;67.25;;;27.23;;
71496;SDS011;59317;53.218;5.730;2022-11-12T12:55:47;69.13;;;27.70;;
71496;SDS011;59317;53.218;5.730;2022-11-12T12:58:14;69.28;;;28.45;;
71496;SDS011;59317;53.218;5.730;2022-11-12T13:00:41;70.00;;;29.73;;
71496;SDS011;59317;53.218;5.730;2022-11-12T13:03:11;67.55;;;28.05;;
71496;SDS011;59317;53.218;5.730;2022-11-12T13:05:37;73.07;;;29.67;;
71496;SDS011;59317;53.218;5.730;2022-11-12T13:08:11;71.15;;;30.20;;
71496;SDS011;59317;53.218;5.730;2022-11-12T13:15:41;72.80;;;30.45;;
71496;SDS011;59317;53.218;5.730;2022-11-12T13:18:08;67.82;;;29.75;;
71496;SDS011;59317;53.218;5.730;2022-11-12T13:20:35;74.00;;;31.05;;
71496;SDS011;59317;53.218;5.730;2022-11-12T13:23:02;75.72;;;31.90;;
71496;SDS011;59317;53.218;5.730;2022-11-12T13:25:30;74.30;;;31.58;;
71496;SDS011;59317;53.218;5.730;2022-11-12T13:45:32;82.75;;;34.70;;
71496;SDS011;59317;53.218;5.730;2022-11-12T13:47:59;68.43;;;29.48;;
71496;SDS011;59317;53.218;5.730;2022-11-12T13:50:26;75.72;;;32.38;;
71496;SDS011;59317;53.218;5.730;2022-11-12T13:52:52;80.40;;;32.13;;
71496;SDS011;59317;53.218;5.730;2022-11-12T13:55:19;77.47;;;30.10;;
71496;SDS011;59317;53.218;5.730;2022-11-12T13:57:48;60.90;;;24.15;;
71496;SDS011;59317;53.218;5.730;2022-11-12T14:03:05;70.53;;;28.65;;
71496;SDS011;59317;53.218;5.730;2022-11-12T14:05:32;76.60;;;31.48;;
71496;SDS011;59317;53.218;5.730;2022-11-12T14:13:19;69.63;;;28.63;;
71496;SDS011;59317;53.218;5.730;2022-11-12T14:15:57;67.43;;;26.77;;
71496;SDS011;59317;53.218;5.730;2022-11-12T14:21:38;66.90;;;26.63;;
71496;SDS011;59317;53.218;5.730;2022-11-12T14:23:57;70.28;;;27.55;;
71496;SDS011;59317;53.218;5.730;2022-11-12T14:26:36;71.03;;;27.45;;
71496;SDS011;59317;53.218;5.730;2022-11-12T14:29:02;64.43;;;27.42;;
71496;SDS011;59317;53.218;5.730;2022-11-12T14:31:28;69.30;;;27.35;;
71496;SDS011;59317;53.218;5.730;2022-11-12T14:33:54;67.50;;;26.92;;
71496;SDS011;59317;53.218;5.730;2022-11-12T14:36:20;68.05;;;26.63;;
71496;SDS011;59317;53.218;5.730;2022-11-12T14:38:48;64.30;;;24.50;;
71496;SDS011;59317;53.218;5.730;2022-11-12T14:41:17;63.20;;;25.77;;
71496;SDS011;59317;53.218;5.730;2022-11-12T14:43:51;62.90;;;24.77;;
71496;SDS011;59317;53.218;5.730;2022-11-12T14:46:43;60.72;;;22.05;;
71496;SDS011;59317;53.218;5.730;2022-11-12T14:51:50;73.93;;;26.60;;
71496;SDS011;59317;53.218;5.730;2022-11-12T14:54:26;86.45;;;29.27;;
71496;SDS011;59317;53.218;5.730;2022-11-12T14:56:53;64.00;;;25.27;;
71496;SDS011;59317;53.218;5.730;2022-11-12T14:59:19;57.33;;;24.27;;
71496;SDS011;59317;53.218;5.730;2022-11-12T15:02:03;59.95;;;25.90;;
71496;SDS011;59317;53.218;5.730;2022-11-12T15:04:37;60.97;;;27.02;;
71496;SDS011;59317;53.218;5.730;2022-11-12T15:07:03;56.07;;;25.67;;
71496;SDS011;59317;53.218;5.730;2022-11-12T15:09:30;54.78;;;24.60;;
71496;SDS011;59317;53.218;5.730;2022-11-12T15:11:56;54.05;;;25.35;;
71496;SDS011;59317;53.218;5.730;2022-11-12T15:14:23;52.70;;;24.50;;
71496;SDS011;59317;53.218;5.730;2022-11-12T15:16:49;53.72;;;23.73;;
71496;SDS011;59317;53.218;5.730;2022-11-12T15:19:17;53.03;;;23.77;;
71496;SDS011;59317;53.218;5.730;2022-11-12T15:21:45;50.95;;;24.50;;
71496;SDS011;59317;53.218;5.730;2022-11-12T15:24:15;46.60;;;23.67;;
71496;SDS011;59317;53.218;5.730;2022-11-12T15:26:43;49.17;;;24.48;;
71496;SDS011;59317;53.218;5.730;2022-11-12T15:31:42;50.90;;;23.90;;
71496;SDS011;59317;53.218;5.730;2022-11-12T15:34:23;47.60;;;23.65;;
71496;SDS011;59317;53.218;5.730;2022-11-12T15:36:49;48.73;;;24.33;;
71496;SDS011;59317;53.218;5.730;2022-11-12T15:39:15;52.00;;;25.60;;
71496;SDS011;59317;53.218;5.730;2022-11-12T15:41:41;45.97;;;23.73;;
71496;SDS011;59317;53.218;5.730;2022-11-12T15:44:08;47.72;;;24.10;;
71496;SDS011;59317;53.218;5.730;2022-11-12T15:46:35;51.20;;;25.47;;
71496;SDS011;59317;53.218;5.730;2022-11-12T15:49:01;55.75;;;25.25;;
71496;SDS011;59317;53.218;5.730;2022-11-12T15:51:27;124.78;;;25.05;;
71496;SDS011;59317;53.218;5.730;2022-11-12T15:53:53;52.20;;;24.42;;
71496;SDS011;59317;53.218;5.730;2022-11-12T15:56:19;657.92;;;34.38;;
71496;SDS011;59317;53.218;5.730;2022-11-12T15:58:46;52.85;;;22.13;;
71496;SDS011;59317;53.218;5.730;2022-11-12T16:01:12;52.33;;;25.30;;
71496;SDS011;59317;53.218;5.730;2022-11-12T16:03:38;49.83;;;23.95;;